BAW506 EGKK-EHAM
Flight info
| Callsign | BAW506 |
|---|---|
| Flight time | 0h 41m |
| Altitude | 29000 |
| Route | FRANE M604 GASBA M197 REDFA |
| Aircraft | A20N/M-SDE2E3FGHIRWXY/LB1 |
Departure
| Time | 2026-05-07 10:04 |
|---|---|
| Airport | London Gatwick Airport (EGKK) |
Arrival
| Time | 2026-05-07 10:46 |
|---|---|
| Airport | Amsterdam Airport Schiphol (EHAM) |
| Time | Latitude | Longitude | Altitude | Speed | Heading |
|---|---|---|---|---|---|
| 2026-05-07 09:37 | 51.15446 | -0.16430 | 214 ft | 0 kts | 77° |
| 2026-05-07 09:46 | 51.15445 | -0.16436 | 204 ft | 2 kts | 78° |
| 2026-05-07 09:46 | 51.15442 | -0.16461 | 208 ft | 2 kts | 82° |
| 2026-05-07 09:46 | 51.15441 | -0.16479 | 204 ft | 2 kts | 87° |
| 2026-05-07 09:47 | 51.15442 | -0.16505 | 204 ft | 2 kts | 118° |
| 2026-05-07 09:47 | 51.15453 | -0.16521 | 211 ft | 2 kts | 165° |
| 2026-05-07 09:47 | 51.15459 | -0.16523 | 208 ft | 0 kts | 168° |
| 2026-05-07 09:47 | 51.15457 | -0.16523 | 209 ft | 0 kts | 168° |
| 2026-05-07 09:53 | 51.15434 | -0.16524 | 204 ft | 6 kts | 194° |
| 2026-05-07 09:53 | 51.15406 | -0.16611 | 204 ft | 8 kts | 257° |
| 2026-05-07 09:53 | 51.15405 | -0.16618 | 204 ft | 2 kts | 257° |
| 2026-05-07 09:53 | 51.15400 | -0.16657 | 215 ft | 6 kts | 257° |
| 2026-05-07 09:54 | 51.15387 | -0.16738 | 208 ft | 10 kts | 255° |
| 2026-05-07 09:54 | 51.15369 | -0.16869 | 208 ft | 14 kts | 257° |
| 2026-05-07 09:54 | 51.15350 | -0.17004 | 205 ft | 11 kts | 257° |
| 2026-05-07 09:54 | 51.15334 | -0.17121 | 205 ft | 0 kts | 257° |
| 2026-05-07 09:57 | 51.15332 | -0.17139 | 209 ft | 4 kts | 258° |
| 2026-05-07 09:57 | 51.15319 | -0.17229 | 205 ft | 14 kts | 257° |
| 2026-05-07 09:57 | 51.15300 | -0.17426 | 208 ft | 21 kts | 263° |
| 2026-05-07 09:57 | 51.15271 | -0.17667 | 211 ft | 22 kts | 257° |
| 2026-05-07 09:58 | 51.15236 | -0.17921 | 207 ft | 25 kts | 257° |
| 2026-05-07 09:58 | 51.15197 | -0.18202 | 209 ft | 27 kts | 257° |
| 2026-05-07 09:58 | 51.15163 | -0.18496 | 209 ft | 27 kts | 258° |
| 2026-05-07 09:58 | 51.15122 | -0.18796 | 206 ft | 29 kts | 258° |
| 2026-05-07 09:59 | 51.15078 | -0.19122 | 205 ft | 31 kts | 258° |
| 2026-05-07 09:59 | 51.15036 | -0.19425 | 211 ft | 28 kts | 257° |
| 2026-05-07 09:59 | 51.14993 | -0.19734 | 205 ft | 22 kts | 257° |
| 2026-05-07 09:59 | 51.14989 | -0.19765 | 207 ft | 1 kts | 257° |
| 2026-05-07 10:00 | 51.14985 | -0.19797 | 211 ft | 5 kts | 257° |
| 2026-05-07 10:00 | 51.14974 | -0.19874 | 205 ft | 9 kts | 258° |
| 2026-05-07 10:00 | 51.14958 | -0.19989 | 204 ft | 0 kts | 257° |
| 2026-05-07 10:00 | 51.14955 | -0.20013 | 214 ft | 5 kts | 257° |
| 2026-05-07 10:01 | 51.14944 | -0.20091 | 204 ft | 9 kts | 258° |
| 2026-05-07 10:01 | 51.14927 | -0.20216 | 207 ft | 14 kts | 257° |
| 2026-05-07 10:01 | 51.14903 | -0.20385 | 204 ft | 17 kts | 259° |
| 2026-05-07 10:01 | 51.14874 | -0.20593 | 212 ft | 21 kts | 257° |
| 2026-05-07 10:02 | 51.14844 | -0.20812 | 204 ft | 20 kts | 258° |
| 2026-05-07 10:02 | 51.14812 | -0.21039 | 215 ft | 23 kts | 257° |
| 2026-05-07 10:02 | 51.14781 | -0.21201 | 207 ft | 7 kts | 253° |
| 2026-05-07 10:02 | 51.14767 | -0.21303 | 212 ft | 12 kts | 257° |
| 2026-05-07 10:03 | 51.14720 | -0.21404 | 215 ft | 13 kts | 184° |
| 2026-05-07 10:03 | 51.14640 | -0.21341 | 212 ft | 13 kts | 155° |
| 2026-05-07 10:03 | 51.14548 | -0.21286 | 212 ft | 15 kts | 142° |
| 2026-05-07 10:03 | 51.14527 | -0.21125 | 213 ft | 18 kts | 78° |
| 2026-05-07 10:04 | 51.14591 | -0.20661 | 214 ft | 76 kts | 78° |
| 2026-05-07 10:04 | 51.14748 | -0.19525 | 212 ft | 131 kts | 78° |
| 2026-05-07 10:04 | 51.14971 | -0.17899 | 464 ft | 157 kts | 78° |
| 2026-05-07 10:04 | 51.15212 | -0.16215 | 1338 ft | 158 kts | 78° |
| 2026-05-07 10:05 | 51.15457 | -0.14474 | 2191 ft | 166 kts | 79° |
| 2026-05-07 10:05 | 51.15708 | -0.12595 | 2756 ft | 184 kts | 79° |
| 2026-05-07 10:05 | 51.15996 | -0.10438 | 3340 ft | 212 kts | 78° |
| 2026-05-07 10:05 | 51.16304 | -0.08168 | 4485 ft | 214 kts | 77° |
| 2026-05-07 10:06 | 51.16654 | -0.05631 | 4893 ft | 257 kts | 77° |
| 2026-05-07 10:06 | 51.16899 | -0.02592 | 4993 ft | 285 kts | 89° |
| 2026-05-07 10:06 | 51.16846 | 0.00492 | 4969 ft | 271 kts | 93° |
| 2026-05-07 10:06 | 51.16782 | 0.03436 | 4980 ft | 269 kts | 93° |
| 2026-05-07 10:07 | 51.16721 | 0.06437 | 5264 ft | 272 kts | 92° |
| 2026-05-07 10:07 | 51.16662 | 0.09463 | 6096 ft | 274 kts | 93° |
| 2026-05-07 10:07 | 51.16605 | 0.12504 | 7126 ft | 275 kts | 93° |
| 2026-05-07 10:07 | 51.16548 | 0.15576 | 8066 ft | 280 kts | 92° |
| 2026-05-07 10:08 | 51.16521 | 0.18690 | 9045 ft | 283 kts | 90° |
| 2026-05-07 10:08 | 51.16534 | 0.21850 | 9993 ft | 286 kts | 89° |
| 2026-05-07 10:08 | 51.16706 | 0.25075 | 10575 ft | 303 kts | 75° |
| 2026-05-07 10:08 | 51.17672 | 0.28182 | 10870 ft | 326 kts | 51° |
| 2026-05-07 10:09 | 51.19430 | 0.30598 | 11342 ft | 341 kts | 32° |
| 2026-05-07 10:09 | 51.21470 | 0.32586 | 12164 ft | 345 kts | 31° |
| 2026-05-07 10:09 | 51.23514 | 0.34570 | 12653 ft | 350 kts | 31° |
| 2026-05-07 10:09 | 51.25599 | 0.36597 | 12997 ft | 351 kts | 30° |
| 2026-05-07 10:10 | 51.27791 | 0.38330 | 13356 ft | 353 kts | 25° |
| 2026-05-07 10:10 | 51.30034 | 0.40001 | 13722 ft | 356 kts | 24° |
| 2026-05-07 10:10 | 51.32288 | 0.41671 | 14045 ft | 357 kts | 24° |
| 2026-05-07 10:10 | 51.34551 | 0.43352 | 14534 ft | 360 kts | 24° |
| 2026-05-07 10:11 | 51.36838 | 0.45058 | 14845 ft | 362 kts | 24° |
| 2026-05-07 10:11 | 51.39102 | 0.46752 | 15171 ft | 366 kts | 25° |
| 2026-05-07 10:11 | 51.41422 | 0.48492 | 15899 ft | 368 kts | 24° |
| 2026-05-07 10:11 | 51.43742 | 0.50234 | 16746 ft | 369 kts | 24° |
| 2026-05-07 10:12 | 51.46091 | 0.52001 | 17376 ft | 376 kts | 24° |
| 2026-05-07 10:12 | 51.48473 | 0.53794 | 18118 ft | 379 kts | 25° |
| 2026-05-07 10:12 | 51.50877 | 0.55606 | 18752 ft | 383 kts | 24° |
| 2026-05-07 10:12 | 51.53308 | 0.57441 | 19376 ft | 386 kts | 25° |
| 2026-05-07 10:13 | 51.55719 | 0.59262 | 20003 ft | 389 kts | 25° |
| 2026-05-07 10:13 | 51.58190 | 0.61131 | 20588 ft | 394 kts | 24° |
| 2026-05-07 10:13 | 51.60680 | 0.63019 | 21198 ft | 395 kts | 26° |
| 2026-05-07 10:13 | 51.63279 | 0.64509 | 21708 ft | 400 kts | 10° |
| 2026-05-07 10:14 | 51.66056 | 0.64907 | 22331 ft | 401 kts | 0° |
| 2026-05-07 10:14 | 51.68860 | 0.65067 | 22885 ft | 406 kts | 6° |
| 2026-05-07 10:14 | 51.71618 | 0.66135 | 23447 ft | 411 kts | 21° |
| 2026-05-07 10:14 | 51.74137 | 0.68201 | 23963 ft | 414 kts | 33° |
| 2026-05-07 10:15 | 51.76476 | 0.70949 | 24481 ft | 415 kts | 40° |
| 2026-05-07 10:15 | 51.78606 | 0.73947 | 25599 ft | 397 kts | 43° |
| 2026-05-07 10:15 | 51.80582 | 0.76908 | 26906 ft | 376 kts | 44° |
| 2026-05-07 10:15 | 51.82294 | 0.79985 | 27970 ft | 363 kts | 54° |
| 2026-05-07 10:16 | 51.83648 | 0.83404 | 28552 ft | 361 kts | 63° |
| 2026-05-07 10:16 | 51.84651 | 0.87156 | 28878 ft | 366 kts | 72° |
| 2026-05-07 10:16 | 51.85375 | 0.91157 | 29052 ft | 375 kts | 74° |
| 2026-05-07 10:16 | 51.86101 | 0.95215 | 29091 ft | 387 kts | 74° |
| 2026-05-07 10:17 | 51.86870 | 0.99459 | 29094 ft | 399 kts | 73° |
| 2026-05-07 10:17 | 51.87666 | 1.03835 | 29092 ft | 412 kts | 73° |
| 2026-05-07 10:17 | 51.88487 | 1.08352 | 29093 ft | 423 kts | 74° |
| 2026-05-07 10:18 | 51.90164 | 1.17637 | 29094 ft | 432 kts | 74° |
| 2026-05-07 10:18 | 51.91839 | 1.26963 | 29094 ft | 431 kts | 74° |
| 2026-05-07 10:19 | 51.93507 | 1.36302 | 29094 ft | 430 kts | 74° |
| 2026-05-07 10:19 | 51.94341 | 1.40987 | 28936 ft | 432 kts | 74° |
| 2026-05-07 10:19 | 51.95168 | 1.45648 | 28657 ft | 428 kts | 74° |
| 2026-05-07 10:19 | 51.95978 | 1.50226 | 28384 ft | 428 kts | 74° |
| 2026-05-07 10:20 | 51.96798 | 1.54868 | 28107 ft | 427 kts | 74° |
| 2026-05-07 10:20 | 51.97614 | 1.59502 | 27844 ft | 427 kts | 74° |
| 2026-05-07 10:20 | 51.98426 | 1.64126 | 27578 ft | 424 kts | 74° |
| 2026-05-07 10:20 | 51.99232 | 1.68725 | 27309 ft | 424 kts | 74° |
| 2026-05-07 10:21 | 51.99996 | 1.73348 | 26954 ft | 423 kts | 76° |
| 2026-05-07 10:21 | 52.00715 | 1.78004 | 26155 ft | 428 kts | 76° |
| 2026-05-07 10:21 | 52.01435 | 1.82742 | 25191 ft | 434 kts | 76° |
| 2026-05-07 10:21 | 52.02150 | 1.87429 | 24532 ft | 431 kts | 76° |
| 2026-05-07 10:22 | 52.02870 | 1.92118 | 24159 ft | 422 kts | 76° |
| 2026-05-07 10:22 | 52.03569 | 1.96669 | 23911 ft | 409 kts | 76° |
| 2026-05-07 10:22 | 52.04250 | 2.01100 | 23672 ft | 403 kts | 76° |
| 2026-05-07 10:22 | 52.04933 | 2.05557 | 23400 ft | 409 kts | 76° |
| 2026-05-07 10:23 | 52.05618 | 2.10040 | 23149 ft | 406 kts | 76° |
| 2026-05-07 10:23 | 52.06294 | 2.14474 | 23102 ft | 404 kts | 76° |
| 2026-05-07 10:23 | 52.06971 | 2.18922 | 23097 ft | 406 kts | 76° |
| 2026-05-07 10:23 | 52.07647 | 2.23383 | 23099 ft | 406 kts | 76° |
| 2026-05-07 10:24 | 52.08314 | 2.27792 | 23097 ft | 406 kts | 76° |
| 2026-05-07 10:24 | 52.08986 | 2.32248 | 22936 ft | 406 kts | 76° |
| 2026-05-07 10:24 | 52.09657 | 2.36708 | 22662 ft | 405 kts | 76° |
| 2026-05-07 10:24 | 52.10322 | 2.41145 | 22390 ft | 402 kts | 76° |
| 2026-05-07 10:25 | 52.11003 | 2.45556 | 22120 ft | 401 kts | 73° |
| 2026-05-07 10:25 | 52.11969 | 2.49813 | 21860 ft | 402 kts | 65° |
| 2026-05-07 10:25 | 52.13276 | 2.53807 | 21591 ft | 400 kts | 59° |
| 2026-05-07 10:25 | 52.14703 | 2.57696 | 21325 ft | 398 kts | 59° |
| 2026-05-07 10:26 | 52.15951 | 2.61700 | 21068 ft | 395 kts | 65° |
| 2026-05-07 10:26 | 52.17091 | 2.65765 | 20875 ft | 392 kts | 65° |
| 2026-05-07 10:26 | 52.18212 | 2.69834 | 20610 ft | 396 kts | 66° |
| 2026-05-07 10:26 | 52.19334 | 2.73938 | 20306 ft | 395 kts | 65° |
| 2026-05-07 10:27 | 52.20441 | 2.77939 | 20058 ft | 390 kts | 65° |
| 2026-05-07 10:27 | 52.21557 | 2.81960 | 19806 ft | 388 kts | 65° |
| 2026-05-07 10:27 | 52.22670 | 2.85976 | 19560 ft | 388 kts | 65° |
| 2026-05-07 10:27 | 52.23778 | 2.89983 | 19315 ft | 387 kts | 65° |
| 2026-05-07 10:28 | 52.24891 | 2.94000 | 18926 ft | 389 kts | 65° |
| 2026-05-07 10:28 | 52.26008 | 2.97997 | 18588 ft | 381 kts | 69° |
| 2026-05-07 10:28 | 52.27041 | 3.01935 | 18325 ft | 377 kts | 66° |
| 2026-05-07 10:28 | 52.28107 | 3.05877 | 18056 ft | 381 kts | 65° |
| 2026-05-07 10:29 | 52.29196 | 3.09822 | 17777 ft | 381 kts | 65° |
| 2026-05-07 10:29 | 52.30284 | 3.13763 | 17511 ft | 378 kts | 65° |
| 2026-05-07 10:29 | 52.31342 | 3.17617 | 17077 ft | 376 kts | 65° |
| 2026-05-07 10:30 | 52.33500 | 3.25530 | 15341 ft | 386 kts | 65° |
| 2026-05-07 10:30 | 52.34600 | 3.29581 | 14554 ft | 388 kts | 65° |
| 2026-05-07 10:30 | 52.35681 | 3.33572 | 14118 ft | 379 kts | 65° |
| 2026-05-07 10:30 | 52.36734 | 3.37469 | 13767 ft | 369 kts | 65° |
| 2026-05-07 10:31 | 52.37745 | 3.41207 | 13337 ft | 360 kts | 65° |
| 2026-05-07 10:31 | 52.38766 | 3.44987 | 12553 ft | 363 kts | 65° |
| 2026-05-07 10:31 | 52.39780 | 3.48751 | 12097 ft | 357 kts | 65° |
| 2026-05-07 10:31 | 52.40766 | 3.52414 | 11839 ft | 345 kts | 66° |
| 2026-05-07 10:32 | 52.41720 | 3.55971 | 11583 ft | 341 kts | 66° |
| 2026-05-07 10:32 | 52.42679 | 3.59545 | 11325 ft | 343 kts | 66° |
| 2026-05-07 10:32 | 52.43636 | 3.63122 | 11080 ft | 340 kts | 66° |
| 2026-05-07 10:32 | 52.44263 | 3.65468 | 10918 ft | 339 kts | 66° |
| 2026-05-07 10:33 | 52.45523 | 3.70192 | 10585 ft | 337 kts | 66° |
| 2026-05-07 10:33 | 52.46447 | 3.73662 | 10401 ft | 333 kts | 66° |
| 2026-05-07 10:33 | 52.47067 | 3.75993 | 10344 ft | 325 kts | 66° |
| 2026-05-07 10:33 | 52.48234 | 3.80388 | 10197 ft | 309 kts | 66° |
| 2026-05-07 10:34 | 52.48804 | 3.82540 | 10128 ft | 300 kts | 66° |
| 2026-05-07 10:34 | 52.49606 | 3.85568 | 10092 ft | 285 kts | 66° |
| 2026-05-07 10:34 | 52.50398 | 3.88562 | 10078 ft | 287 kts | 66° |
| 2026-05-07 10:34 | 52.51190 | 3.91560 | 9849 ft | 287 kts | 66° |
| 2026-05-07 10:35 | 52.51947 | 3.94584 | 9587 ft | 283 kts | 74° |
| 2026-05-07 10:35 | 52.52132 | 3.97813 | 9491 ft | 287 kts | 97° |
| 2026-05-07 10:35 | 52.51553 | 4.00942 | 9372 ft | 288 kts | 112° |
| 2026-05-07 10:35 | 52.50588 | 4.03761 | 9262 ft | 286 kts | 130° |
| 2026-05-07 10:36 | 52.49166 | 4.06042 | 9019 ft | 287 kts | 138° |
| 2026-05-07 10:36 | 52.47699 | 4.08288 | 8597 ft | 287 kts | 137° |
| 2026-05-07 10:36 | 52.46226 | 4.10556 | 7980 ft | 293 kts | 137° |
| 2026-05-07 10:36 | 52.44721 | 4.12865 | 7376 ft | 298 kts | 137° |
| 2026-05-07 10:37 | 52.43223 | 4.15153 | 7161 ft | 288 kts | 137° |
| 2026-05-07 10:37 | 52.41799 | 4.17328 | 6948 ft | 279 kts | 137° |
| 2026-05-07 10:37 | 52.40384 | 4.19485 | 6588 ft | 277 kts | 137° |
| 2026-05-07 10:37 | 52.38973 | 4.21630 | 6197 ft | 275 kts | 137° |
| 2026-05-07 10:38 | 52.37567 | 4.23749 | 5805 ft | 274 kts | 137° |
| 2026-05-07 10:38 | 52.36157 | 4.25845 | 5414 ft | 273 kts | 137° |
| 2026-05-07 10:38 | 52.34748 | 4.27921 | 5027 ft | 272 kts | 137° |
| 2026-05-07 10:38 | 52.33340 | 4.29980 | 4639 ft | 271 kts | 137° |
| 2026-05-07 10:39 | 52.31940 | 4.32025 | 4239 ft | 270 kts | 137° |
| 2026-05-07 10:39 | 52.30533 | 4.34043 | 3855 ft | 269 kts | 137° |
| 2026-05-07 10:39 | 52.29134 | 4.36065 | 3462 ft | 268 kts | 137° |
| 2026-05-07 10:39 | 52.27763 | 4.38037 | 3128 ft | 264 kts | 137° |
| 2026-05-07 10:40 | 52.26385 | 4.40014 | 2753 ft | 264 kts | 137° |
| 2026-05-07 10:40 | 52.25014 | 4.41993 | 2339 ft | 260 kts | 137° |
| 2026-05-07 10:40 | 52.23681 | 4.43910 | 2060 ft | 248 kts | 137° |
| 2026-05-07 10:40 | 52.22452 | 4.45691 | 2001 ft | 222 kts | 136° |
| 2026-05-07 10:41 | 52.21374 | 4.47261 | 2047 ft | 204 kts | 136° |
| 2026-05-07 10:41 | 52.20620 | 4.49108 | 2001 ft | 183 kts | 103° |
| 2026-05-07 10:41 | 52.20550 | 4.50969 | 1993 ft | 150 kts | 81° |
| 2026-05-07 10:41 | 52.20782 | 4.52456 | 1995 ft | 128 kts | 68° |
| 2026-05-07 10:42 | 52.21157 | 4.53772 | 1989 ft | 126 kts | 60° |
| 2026-05-07 10:42 | 52.21593 | 4.54994 | 1990 ft | 125 kts | 57° |
| 2026-05-07 10:42 | 52.22057 | 4.56193 | 1987 ft | 124 kts | 56° |
| 2026-05-07 10:42 | 52.22532 | 4.57397 | 2000 ft | 126 kts | 56° |
| 2026-05-07 10:43 | 52.22985 | 4.58570 | 1965 ft | 121 kts | 57° |
| 2026-05-07 10:43 | 52.23446 | 4.59747 | 1994 ft | 128 kts | 57° |
| 2026-05-07 10:43 | 52.23909 | 4.60948 | 1842 ft | 124 kts | 56° |
| 2026-05-07 10:43 | 52.24370 | 4.62126 | 1677 ft | 120 kts | 55° |
| 2026-05-07 10:44 | 52.24823 | 4.63282 | 1500 ft | 126 kts | 56° |
| 2026-05-07 10:44 | 52.25296 | 4.64499 | 1345 ft | 126 kts | 56° |
| 2026-05-07 10:44 | 52.25777 | 4.65728 | 1174 ft | 131 kts | 56° |
| 2026-05-07 10:44 | 52.26251 | 4.66952 | 994 ft | 126 kts | 56° |
| 2026-05-07 10:45 | 52.26722 | 4.68159 | 824 ft | 126 kts | 56° |
| 2026-05-07 10:45 | 52.27197 | 4.69379 | 665 ft | 130 kts | 56° |
| 2026-05-07 10:45 | 52.27666 | 4.70589 | 470 ft | 124 kts | 56° |
| 2026-05-07 10:45 | 52.28140 | 4.71803 | 316 ft | 126 kts | 56° |
| 2026-05-07 10:46 | 52.28607 | 4.72973 | 159 ft | 124 kts | 55° |
| 2026-05-07 10:46 | 52.29073 | 4.74160 | 22 ft | 124 kts | 56° |
| 2026-05-07 10:46 | 52.29380 | 4.74939 | 16 ft | 39 kts | 58° |
| 2026-05-07 10:46 | 52.29489 | 4.75224 | 14 ft | 24 kts | 57° |
| 2026-05-07 10:47 | 52.29542 | 4.75330 | 16 ft | 2 kts | 36° |
| 2026-05-07 10:47 | 52.29561 | 4.75349 | 16 ft | 5 kts | 28° |
| 2026-05-07 10:47 | 52.29603 | 4.75361 | 17 ft | 8 kts | 357° |
| 2026-05-07 10:47 | 52.29665 | 4.75320 | 18 ft | 9 kts | 328° |
| 2026-05-07 10:48 | 52.29667 | 4.75318 | 18 ft | 0 kts | 328° |
| 2026-05-07 10:48 | 52.29685 | 4.75299 | 16 ft | 5 kts | 326° |
| 2026-05-07 10:48 | 52.29699 | 4.75288 | 16 ft | 0 kts | 338° |
| 2026-05-07 10:49 | 52.29702 | 4.75287 | 16 ft | 2 kts | 340° |
| 2026-05-07 10:49 | 52.29731 | 4.75288 | 16 ft | 6 kts | 21° |
| 2026-05-07 10:49 | 52.29763 | 4.75341 | 16 ft | 8 kts | 62° |
| 2026-05-07 10:50 | 52.29788 | 4.75448 | 17 ft | 13 kts | 65° |
| 2026-05-07 10:50 | 52.29845 | 4.75600 | 16 ft | 18 kts | 57° |
| 2026-05-07 10:50 | 52.29915 | 4.75785 | 13 ft | 21 kts | 59° |
| 2026-05-07 10:50 | 52.29944 | 4.75860 | 13 ft | 2 kts | 57° |
| 2026-05-07 10:51 | 52.29962 | 4.75906 | 12 ft | 7 kts | 57° |
| 2026-05-07 10:51 | 52.29997 | 4.75998 | 12 ft | 12 kts | 57° |
| 2026-05-07 10:51 | 52.30054 | 4.76146 | 11 ft | 18 kts | 57° |
| 2026-05-07 10:51 | 52.30125 | 4.76335 | 14 ft | 20 kts | 59° |
| 2026-05-07 10:52 | 52.30179 | 4.76470 | 13 ft | 0 kts | 57° |
| 2026-05-07 10:53 | 52.30180 | 4.76474 | 13 ft | 2 kts | 57° |
| 2026-05-07 10:53 | 52.30196 | 4.76517 | 13 ft | 7 kts | 58° |
| 2026-05-07 10:53 | 52.30232 | 4.76609 | 14 ft | 13 kts | 58° |
| 2026-05-07 10:53 | 52.30287 | 4.76751 | 11 ft | 8 kts | 57° |
| 2026-05-07 10:54 | 52.30326 | 4.76856 | 11 ft | 12 kts | 59° |
| 2026-05-07 10:54 | 52.30377 | 4.76989 | 11 ft | 15 kts | 56° |
| 2026-05-07 10:54 | 52.30459 | 4.77018 | 8 ft | 14 kts | 332° |
| 2026-05-07 10:54 | 52.30538 | 4.76939 | 5 ft | 14 kts | 328° |
| 2026-05-07 10:55 | 52.30633 | 4.76870 | 3 ft | 10 kts | 8° |
| 2026-05-07 10:55 | 52.30648 | 4.76883 | 3 ft | 2 kts | 46° |
| 2026-05-07 10:55 | 52.30656 | 4.76933 | 3 ft | 9 kts | 84° |
| 2026-05-07 10:55 | 52.30669 | 4.77022 | 4 ft | 7 kts | 12° |
| 2026-05-07 10:56 | 52.30718 | 4.77027 | 2 ft | 0 kts | 3° |